sensor_id;sensor_type;location;lat;lon;timestamp;P1;durP1;ratioP1;P2;durP2;ratioP2
37355;SDS011;48747;50.250;18.848;2024-02-16T00:00:20;25.90;;;12.95;;
37355;SDS011;48747;50.250;18.848;2024-02-16T00:02:23;22.37;;;11.03;;
37355;SDS011;48747;50.250;18.848;2024-02-16T00:04:26;25.75;;;12.85;;
37355;SDS011;48747;50.250;18.848;2024-02-16T00:06:29;28.45;;;14.13;;
37355;SDS011;48747;50.250;18.848;2024-02-16T00:08:32;26.15;;;14.83;;
37355;SDS011;48747;50.250;18.848;2024-02-16T00:10:36;27.35;;;14.03;;
37355;SDS011;48747;50.250;18.848;2024-02-16T00:12:40;25.57;;;14.15;;
37355;SDS011;48747;50.250;18.848;2024-02-16T00:14:43;26.25;;;14.38;;
37355;SDS011;48747;50.250;18.848;2024-02-16T00:16:47;26.02;;;13.35;;
37355;SDS011;48747;50.250;18.848;2024-02-16T00:18:50;23.18;;;11.48;;
37355;SDS011;48747;50.250;18.848;2024-02-16T00:20:53;22.37;;;11.50;;
37355;SDS011;48747;50.250;18.848;2024-02-16T00:22:56;24.10;;;11.95;;
37355;SDS011;48747;50.250;18.848;2024-02-16T00:25:01;20.43;;;11.12;;
37355;SDS011;48747;50.250;18.848;2024-02-16T00:27:04;23.90;;;11.25;;
37355;SDS011;48747;50.250;18.848;2024-02-16T00:29:07;20.00;;;10.75;;
37355;SDS011;48747;50.250;18.848;2024-02-16T00:31:10;21.33;;;11.12;;
37355;SDS011;48747;50.250;18.848;2024-02-16T00:33:13;21.65;;;10.80;;
37355;SDS011;48747;50.250;18.848;2024-02-16T00:35:18;25.23;;;11.68;;
37355;SDS011;48747;50.250;18.848;2024-02-16T00:37:21;26.60;;;11.55;;
37355;SDS011;48747;50.250;18.848;2024-02-16T00:39:25;26.52;;;12.35;;
37355;SDS011;48747;50.250;18.848;2024-02-16T00:41:29;22.82;;;11.33;;
37355;SDS011;48747;50.250;18.848;2024-02-16T00:43:32;21.10;;;11.10;;
37355;SDS011;48747;50.250;18.848;2024-02-16T00:45:35;19.07;;;10.78;;
37355;SDS011;48747;50.250;18.848;2024-02-16T00:47:38;22.77;;;11.08;;
37355;SDS011;48747;50.250;18.848;2024-02-16T00:49:42;20.50;;;9.73;;
37355;SDS011;48747;50.250;18.848;2024-02-16T00:51:45;19.57;;;10.58;;
37355;SDS011;48747;50.250;18.848;2024-02-16T00:53:48;26.33;;;10.65;;
37355;SDS011;48747;50.250;18.848;2024-02-16T00:55:51;17.40;;;10.53;;
37355;SDS011;48747;50.250;18.848;2024-02-16T00:57:54;17.12;;;9.33;;
37355;SDS011;48747;50.250;18.848;2024-02-16T00:59:57;16.30;;;8.88;;
37355;SDS011;48747;50.250;18.848;2024-02-16T01:02:00;19.27;;;9.53;;
37355;SDS011;48747;50.250;18.848;2024-02-16T01:04:03;19.98;;;9.58;;
37355;SDS011;48747;50.250;18.848;2024-02-16T01:06:08;18.32;;;10.40;;
37355;SDS011;48747;50.250;18.848;2024-02-16T01:08:11;17.52;;;8.93;;
37355;SDS011;48747;50.250;18.848;2024-02-16T01:10:14;17.77;;;9.50;;
37355;SDS011;48747;50.250;18.848;2024-02-16T01:12:17;18.25;;;9.63;;
37355;SDS011;48747;50.250;18.848;2024-02-16T01:14:20;18.05;;;9.53;;
37355;SDS011;48747;50.250;18.848;2024-02-16T01:16:23;19.75;;;9.80;;
37355;SDS011;48747;50.250;18.848;2024-02-16T01:18:27;17.52;;;8.18;;
37355;SDS011;48747;50.250;18.848;2024-02-16T01:20:31;13.83;;;8.05;;
37355;SDS011;48747;50.250;18.848;2024-02-16T01:22:34;15.00;;;8.33;;
37355;SDS011;48747;50.250;18.848;2024-02-16T01:24:37;13.45;;;8.13;;
37355;SDS011;48747;50.250;18.848;2024-02-16T01:26:40;16.85;;;8.58;;
37355;SDS011;48747;50.250;18.848;2024-02-16T01:28:43;18.73;;;7.87;;
37355;SDS011;48747;50.250;18.848;2024-02-16T01:30:47;17.10;;;7.65;;
37355;SDS011;48747;50.250;18.848;2024-02-16T01:32:50;17.98;;;8.20;;
37355;SDS011;48747;50.250;18.848;2024-02-16T01:34:53;15.60;;;7.83;;
37355;SDS011;48747;50.250;18.848;2024-02-16T01:36:56;14.65;;;7.75;;
37355;SDS011;48747;50.250;18.848;2024-02-16T01:38:59;14.00;;;7.67;;
37355;SDS011;48747;50.250;18.848;2024-02-16T01:41:02;17.45;;;7.87;;
37355;SDS011;48747;50.250;18.848;2024-02-16T01:43:06;16.52;;;7.42;;
37355;SDS011;48747;50.250;18.848;2024-02-16T01:45:09;13.95;;;7.28;;
37355;SDS011;48747;50.250;18.848;2024-02-16T01:47:13;15.98;;;8.65;;
37355;SDS011;48747;50.250;18.848;2024-02-16T01:49:17;15.50;;;8.80;;
37355;SDS011;48747;50.250;18.848;2024-02-16T01:51:22;14.50;;;7.70;;
37355;SDS011;48747;50.250;18.848;2024-02-16T01:53:27;16.67;;;8.25;;
37355;SDS011;48747;50.250;18.848;2024-02-16T01:55:30;15.25;;;7.90;;
37355;SDS011;48747;50.250;18.848;2024-02-16T01:57:33;13.55;;;8.03;;
37355;SDS011;48747;50.250;18.848;2024-02-16T01:59:37;17.57;;;8.95;;
37355;SDS011;48747;50.250;18.848;2024-02-16T02:01:41;18.67;;;9.08;;
37355;SDS011;48747;50.250;18.848;2024-02-16T02:03:44;18.92;;;11.53;;
37355;SDS011;48747;50.250;18.848;2024-02-16T02:05:47;22.77;;;11.97;;
37355;SDS011;48747;50.250;18.848;2024-02-16T02:07:52;32.48;;;17.90;;
37355;SDS011;48747;50.250;18.848;2024-02-16T02:09:55;28.57;;;17.23;;
37355;SDS011;48747;50.250;18.848;2024-02-16T02:11:58;27.62;;;16.35;;
37355;SDS011;48747;50.250;18.848;2024-02-16T02:14:01;26.73;;;12.98;;
37355;SDS011;48747;50.250;18.848;2024-02-16T02:16:04;31.30;;;17.25;;
37355;SDS011;48747;50.250;18.848;2024-02-16T02:18:09;35.85;;;18.82;;
37355;SDS011;48747;50.250;18.848;2024-02-16T02:20:12;38.92;;;20.75;;
37355;SDS011;48747;50.250;18.848;2024-02-16T02:22:15;43.02;;;23.18;;
37355;SDS011;48747;50.250;18.848;2024-02-16T02:24:19;42.08;;;23.65;;
37355;SDS011;48747;50.250;18.848;2024-02-16T02:26:22;46.10;;;25.20;;
37355;SDS011;48747;50.250;18.848;2024-02-16T02:28:26;50.88;;;28.35;;
37355;SDS011;48747;50.250;18.848;2024-02-16T02:30:30;49.75;;;26.60;;
37355;SDS011;48747;50.250;18.848;2024-02-16T02:32:33;51.15;;;28.87;;
37355;SDS011;48747;50.250;18.848;2024-02-16T02:34:36;50.17;;;26.65;;
37355;SDS011;48747;50.250;18.848;2024-02-16T02:36:39;51.58;;;29.52;;
37355;SDS011;48747;50.250;18.848;2024-02-16T02:38:42;55.25;;;31.97;;
37355;SDS011;48747;50.250;18.848;2024-02-16T02:40:45;54.70;;;31.55;;
37355;SDS011;48747;50.250;18.848;2024-02-16T02:42:48;63.28;;;33.48;;
37355;SDS011;48747;50.250;18.848;2024-02-16T02:44:51;57.80;;;31.97;;
37355;SDS011;48747;50.250;18.848;2024-02-16T02:46:54;64.37;;;33.18;;
37355;SDS011;48747;50.250;18.848;2024-02-16T02:48:57;60.30;;;34.53;;
37355;SDS011;48747;50.250;18.848;2024-02-16T02:51:00;62.62;;;34.95;;
37355;SDS011;48747;50.250;18.848;2024-02-16T02:53:04;60.95;;;33.53;;
37355;SDS011;48747;50.250;18.848;2024-02-16T02:55:07;57.17;;;33.30;;
37355;SDS011;48747;50.250;18.848;2024-02-16T02:57:10;65.80;;;34.70;;
37355;SDS011;48747;50.250;18.848;2024-02-16T02:59:14;58.73;;;32.98;;
37355;SDS011;48747;50.250;18.848;2024-02-16T03:01:17;60.08;;;34.38;;
37355;SDS011;48747;50.250;18.848;2024-02-16T03:03:21;59.48;;;34.63;;
37355;SDS011;48747;50.250;18.848;2024-02-16T03:05:24;63.73;;;35.13;;
37355;SDS011;48747;50.250;18.848;2024-02-16T03:07:28;64.85;;;36.05;;
37355;SDS011;48747;50.250;18.848;2024-02-16T03:09:31;63.58;;;35.05;;
37355;SDS011;48747;50.250;18.848;2024-02-16T03:11:34;65.75;;;34.35;;
37355;SDS011;48747;50.250;18.848;2024-02-16T03:13:38;66.62;;;36.75;;
37355;SDS011;48747;50.250;18.848;2024-02-16T03:15:41;65.17;;;36.13;;
37355;SDS011;48747;50.250;18.848;2024-02-16T03:17:44;60.05;;;34.90;;
37355;SDS011;48747;50.250;18.848;2024-02-16T03:19:47;60.43;;;33.80;;
37355;SDS011;48747;50.250;18.848;2024-02-16T03:21:50;55.88;;;34.53;;
37355;SDS011;48747;50.250;18.848;2024-02-16T03:23:53;57.27;;;32.13;;
37355;SDS011;48747;50.250;18.848;2024-02-16T03:25:56;61.95;;;32.70;;
37355;SDS011;48747;50.250;18.848;2024-02-16T03:27:59;64.65;;;34.53;;
37355;SDS011;48747;50.250;18.848;2024-02-16T03:30:02;63.08;;;33.00;;
37355;SDS011;48747;50.250;18.848;2024-02-16T03:32:06;64.40;;;34.23;;
37355;SDS011;48747;50.250;18.848;2024-02-16T03:34:09;58.17;;;33.67;;
37355;SDS011;48747;50.250;18.848;2024-02-16T03:36:12;58.05;;;31.68;;
37355;SDS011;48747;50.250;18.848;2024-02-16T03:38:16;59.23;;;34.00;;
37355;SDS011;48747;50.250;18.848;2024-02-16T03:40:19;59.00;;;34.25;;
37355;SDS011;48747;50.250;18.848;2024-02-16T03:42:22;58.87;;;34.58;;
37355;SDS011;48747;50.250;18.848;2024-02-16T03:44:25;63.28;;;35.65;;
37355;SDS011;48747;50.250;18.848;2024-02-16T03:46:28;58.23;;;34.38;;
37355;SDS011;48747;50.250;18.848;2024-02-16T03:48:31;56.98;;;33.80;;
37355;SDS011;48747;50.250;18.848;2024-02-16T03:50:34;56.25;;;34.18;;
37355;SDS011;48747;50.250;18.848;2024-02-16T03:52:39;61.20;;;34.48;;
37355;SDS011;48747;50.250;18.848;2024-02-16T03:54:42;61.90;;;34.50;;
37355;SDS011;48747;50.250;18.848;2024-02-16T03:56:46;56.40;;;33.58;;
37355;SDS011;48747;50.250;18.848;2024-02-16T03:58:49;57.05;;;33.45;;
37355;SDS011;48747;50.250;18.848;2024-02-16T04:00:52;62.88;;;35.03;;
37355;SDS011;48747;50.250;18.848;2024-02-16T04:02:56;63.45;;;35.20;;
37355;SDS011;48747;50.250;18.848;2024-02-16T04:04:59;60.50;;;32.83;;
37355;SDS011;48747;50.250;18.848;2024-02-16T04:07:02;57.58;;;33.20;;
37355;SDS011;48747;50.250;18.848;2024-02-16T04:09:05;57.55;;;34.55;;
37355;SDS011;48747;50.250;18.848;2024-02-16T04:11:11;55.25;;;32.67;;
37355;SDS011;48747;50.250;18.848;2024-02-16T04:13:15;57.35;;;32.85;;
37355;SDS011;48747;50.250;18.848;2024-02-16T04:15:18;53.80;;;31.87;;
37355;SDS011;48747;50.250;18.848;2024-02-16T04:17:21;57.38;;;34.15;;
37355;SDS011;48747;50.250;18.848;2024-02-16T04:19:28;57.27;;;32.03;;
37355;SDS011;48747;50.250;18.848;2024-02-16T04:21:31;53.52;;;31.15;;
37355;SDS011;48747;50.250;18.848;2024-02-16T04:23:34;55.43;;;31.45;;
37355;SDS011;48747;50.250;18.848;2024-02-16T04:25:37;58.35;;;32.40;;
37355;SDS011;48747;50.250;18.848;2024-02-16T04:27:40;57.88;;;34.58;;
37355;SDS011;48747;50.250;18.848;2024-02-16T04:29:43;59.58;;;32.85;;
37355;SDS011;48747;50.250;18.848;2024-02-16T04:31:46;52.73;;;31.35;;
37355;SDS011;48747;50.250;18.848;2024-02-16T04:33:49;53.87;;;32.90;;
37355;SDS011;48747;50.250;18.848;2024-02-16T04:35:53;60.00;;;32.70;;
37355;SDS011;48747;50.250;18.848;2024-02-16T04:37:56;59.90;;;32.30;;
37355;SDS011;48747;50.250;18.848;2024-02-16T04:39:59;55.83;;;32.38;;
37355;SDS011;48747;50.250;18.848;2024-02-16T04:42:02;55.75;;;32.83;;
37355;SDS011;48747;50.250;18.848;2024-02-16T04:44:05;55.73;;;33.80;;
37355;SDS011;48747;50.250;18.848;2024-02-16T04:46:13;60.67;;;32.50;;
37355;SDS011;48747;50.250;18.848;2024-02-16T04:48:16;55.73;;;31.50;;
37355;SDS011;48747;50.250;18.848;2024-02-16T04:50:19;54.73;;;32.05;;
37355;SDS011;48747;50.250;18.848;2024-02-16T04:52:22;57.48;;;32.88;;
37355;SDS011;48747;50.250;18.848;2024-02-16T04:54:25;52.80;;;30.65;;
37355;SDS011;48747;50.250;18.848;2024-02-16T04:56:28;55.80;;;32.50;;
37355;SDS011;48747;50.250;18.848;2024-02-16T04:58:31;54.33;;;32.38;;
37355;SDS011;48747;50.250;18.848;2024-02-16T05:00:38;58.73;;;31.85;;
37355;SDS011;48747;50.250;18.848;2024-02-16T05:02:41;54.25;;;31.10;;
37355;SDS011;48747;50.250;18.848;2024-02-16T05:04:44;56.05;;;33.88;;
37355;SDS011;48747;50.250;18.848;2024-02-16T05:06:47;57.13;;;32.30;;
37355;SDS011;48747;50.250;18.848;2024-02-16T05:08:52;59.15;;;34.70;;
37355;SDS011;48747;50.250;18.848;2024-02-16T05:10:55;61.18;;;33.45;;
37355;SDS011;48747;50.250;18.848;2024-02-16T05:12:58;57.30;;;31.97;;
37355;SDS011;48747;50.250;18.848;2024-02-16T05:15:01;57.73;;;33.35;;
37355;SDS011;48747;50.250;18.848;2024-02-16T05:17:05;58.85;;;32.28;;
37355;SDS011;48747;50.250;18.848;2024-02-16T05:19:08;53.95;;;32.05;;
37355;SDS011;48747;50.250;18.848;2024-02-16T05:21:11;55.12;;;31.70;;
37355;SDS011;48747;50.250;18.848;2024-02-16T05:23:14;60.00;;;33.38;;
37355;SDS011;48747;50.250;18.848;2024-02-16T05:25:17;59.75;;;33.70;;
37355;SDS011;48747;50.250;18.848;2024-02-16T05:27:20;52.90;;;30.65;;
37355;SDS011;48747;50.250;18.848;2024-02-16T05:29:23;57.05;;;33.60;;
37355;SDS011;48747;50.250;18.848;2024-02-16T05:31:28;56.53;;;31.75;;
37355;SDS011;48747;50.250;18.848;2024-02-16T05:33:32;54.67;;;31.82;;
37355;SDS011;48747;50.250;18.848;2024-02-16T05:35:35;52.98;;;30.30;;
37355;SDS011;48747;50.250;18.848;2024-02-16T05:37:40;55.67;;;31.57;;
37355;SDS011;48747;50.250;18.848;2024-02-16T05:39:48;54.93;;;31.05;;
37355;SDS011;48747;50.250;18.848;2024-02-16T05:41:59;51.92;;;29.72;;
37355;SDS011;48747;50.250;18.848;2024-02-16T05:44:02;51.40;;;28.60;;
37355;SDS011;48747;50.250;18.848;2024-02-16T05:46:06;51.45;;;30.50;;
37355;SDS011;48747;50.250;18.848;2024-02-16T05:48:09;51.73;;;29.72;;
37355;SDS011;48747;50.250;18.848;2024-02-16T05:50:12;62.27;;;35.88;;
37355;SDS011;48747;50.250;18.848;2024-02-16T05:52:16;58.28;;;34.25;;
37355;SDS011;48747;50.250;18.848;2024-02-16T05:54:19;54.75;;;29.60;;
37355;SDS011;48747;50.250;18.848;2024-02-16T05:56:23;54.45;;;28.12;;
37355;SDS011;48747;50.250;18.848;2024-02-16T05:58:26;48.68;;;27.95;;
37355;SDS011;48747;50.250;18.848;2024-02-16T06:00:35;54.75;;;28.77;;
37355;SDS011;48747;50.250;18.848;2024-02-16T06:02:37;51.23;;;28.73;;
37355;SDS011;48747;50.250;18.848;2024-02-16T06:04:41;48.45;;;26.93;;
37355;SDS011;48747;50.250;18.848;2024-02-16T06:06:44;51.98;;;29.20;;
37355;SDS011;48747;50.250;18.848;2024-02-16T06:08:47;55.40;;;30.60;;
37355;SDS011;48747;50.250;18.848;2024-02-16T06:10:50;51.65;;;29.15;;
37355;SDS011;48747;50.250;18.848;2024-02-16T06:12:55;56.45;;;32.10;;
37355;SDS011;48747;50.250;18.848;2024-02-16T06:14:58;50.70;;;28.65;;
37355;SDS011;48747;50.250;18.848;2024-02-16T06:17:01;53.40;;;31.20;;
37355;SDS011;48747;50.250;18.848;2024-02-16T06:19:04;50.95;;;31.45;;
37355;SDS011;48747;50.250;18.848;2024-02-16T06:21:09;57.73;;;32.58;;
37355;SDS011;48747;50.250;18.848;2024-02-16T06:23:12;60.40;;;33.35;;
37355;SDS011;48747;50.250;18.848;2024-02-16T06:25:17;56.37;;;33.20;;
37355;SDS011;48747;50.250;18.848;2024-02-16T06:27:20;54.40;;;33.25;;
37355;SDS011;48747;50.250;18.848;2024-02-16T06:29:23;56.45;;;34.05;;
37355;SDS011;48747;50.250;18.848;2024-02-16T06:31:26;57.53;;;31.93;;
37355;SDS011;48747;50.250;18.848;2024-02-16T06:33:29;52.17;;;31.68;;
37355;SDS011;48747;50.250;18.848;2024-02-16T06:35:32;54.55;;;31.73;;
37355;SDS011;48747;50.250;18.848;2024-02-16T06:37:36;52.67;;;31.93;;
37355;SDS011;48747;50.250;18.848;2024-02-16T06:39:40;51.70;;;29.20;;
37355;SDS011;48747;50.250;18.848;2024-02-16T06:41:47;50.65;;;29.50;;
37355;SDS011;48747;50.250;18.848;2024-02-16T06:43:50;53.08;;;29.60;;
37355;SDS011;48747;50.250;18.848;2024-02-16T06:45:53;54.75;;;30.08;;
37355;SDS011;48747;50.250;18.848;2024-02-16T06:47:58;47.60;;;26.57;;
37355;SDS011;48747;50.250;18.848;2024-02-16T06:50:01;47.40;;;27.48;;
37355;SDS011;48747;50.250;18.848;2024-02-16T06:52:04;47.80;;;27.77;;
37355;SDS011;48747;50.250;18.848;2024-02-16T06:54:08;49.15;;;26.23;;
37355;SDS011;48747;50.250;18.848;2024-02-16T06:56:11;49.70;;;27.22;;
37355;SDS011;48747;50.250;18.848;2024-02-16T06:58:14;47.70;;;27.48;;
37355;SDS011;48747;50.250;18.848;2024-02-16T07:00:17;53.23;;;27.17;;
37355;SDS011;48747;50.250;18.848;2024-02-16T07:02:21;49.20;;;27.73;;
37355;SDS011;48747;50.250;18.848;2024-02-16T07:04:24;49.10;;;26.48;;
37355;SDS011;48747;50.250;18.848;2024-02-16T07:06:27;44.27;;;26.07;;
37355;SDS011;48747;50.250;18.848;2024-02-16T07:08:30;44.73;;;26.10;;
37355;SDS011;48747;50.250;18.848;2024-02-16T07:10:33;52.90;;;27.82;;
37355;SDS011;48747;50.250;18.848;2024-02-16T07:12:36;46.85;;;26.93;;
37355;SDS011;48747;50.250;18.848;2024-02-16T07:14:39;49.00;;;26.95;;
37355;SDS011;48747;50.250;18.848;2024-02-16T07:16:42;47.43;;;25.35;;
37355;SDS011;48747;50.250;18.848;2024-02-16T07:18:45;43.05;;;24.92;;
37355;SDS011;48747;50.250;18.848;2024-02-16T07:20:48;44.27;;;25.68;;
37355;SDS011;48747;50.250;18.848;2024-02-16T07:22:51;43.83;;;27.20;;
37355;SDS011;48747;50.250;18.848;2024-02-16T07:24:54;47.35;;;27.02;;
37355;SDS011;48747;50.250;18.848;2024-02-16T07:26:57;44.20;;;26.42;;
37355;SDS011;48747;50.250;18.848;2024-02-16T07:29:01;41.58;;;22.93;;
37355;SDS011;48747;50.250;18.848;2024-02-16T07:31:04;39.60;;;24.23;;
37355;SDS011;48747;50.250;18.848;2024-02-16T07:33:07;39.92;;;23.98;;
37355;SDS011;48747;50.250;18.848;2024-02-16T07:35:10;41.30;;;23.07;;
37355;SDS011;48747;50.250;18.848;2024-02-16T07:37:14;41.80;;;23.70;;
37355;SDS011;48747;50.250;18.848;2024-02-16T07:39:20;40.30;;;22.95;;
37355;SDS011;48747;50.250;18.848;2024-02-16T07:41:25;39.08;;;23.12;;
37355;SDS011;48747;50.250;18.848;2024-02-16T07:43:29;36.28;;;20.55;;
37355;SDS011;48747;50.250;18.848;2024-02-16T07:45:32;38.25;;;21.52;;
37355;SDS011;48747;50.250;18.848;2024-02-16T07:47:35;37.28;;;21.45;;
37355;SDS011;48747;50.250;18.848;2024-02-16T07:49:38;38.35;;;22.02;;
37355;SDS011;48747;50.250;18.848;2024-02-16T07:51:41;38.33;;;21.23;;
37355;SDS011;48747;50.250;18.848;2024-02-16T07:53:44;38.05;;;21.60;;
37355;SDS011;48747;50.250;18.848;2024-02-16T07:55:47;40.50;;;21.20;;
37355;SDS011;48747;50.250;18.848;2024-02-16T07:57:51;38.15;;;21.10;;
37355;SDS011;48747;50.250;18.848;2024-02-16T07:59:54;38.50;;;21.73;;
37355;SDS011;48747;50.250;18.848;2024-02-16T08:01:58;40.67;;;22.27;;
37355;SDS011;48747;50.250;18.848;2024-02-16T08:04:03;38.13;;;22.73;;
37355;SDS011;48747;50.250;18.848;2024-02-16T08:06:06;41.55;;;23.92;;
37355;SDS011;48747;50.250;18.848;2024-02-16T08:08:09;41.15;;;23.10;;
37355;SDS011;48747;50.250;18.848;2024-02-16T08:10:12;38.25;;;21.68;;
37355;SDS011;48747;50.250;18.848;2024-02-16T08:12:16;37.95;;;23.90;;
37355;SDS011;48747;50.250;18.848;2024-02-16T08:14:19;39.25;;;22.45;;
37355;SDS011;48747;50.250;18.848;2024-02-16T08:16:22;44.48;;;24.02;;
37355;SDS011;48747;50.250;18.848;2024-02-16T08:18:25;40.63;;;23.87;;
37355;SDS011;48747;50.250;18.848;2024-02-16T08:20:28;38.58;;;23.35;;
37355;SDS011;48747;50.250;18.848;2024-02-16T08:22:31;39.80;;;25.45;;
37355;SDS011;48747;50.250;18.848;2024-02-16T08:24:35;42.27;;;23.90;;
37355;SDS011;48747;50.250;18.848;2024-02-16T08:26:38;37.38;;;24.67;;
37355;SDS011;48747;50.250;18.848;2024-02-16T08:28:43;34.27;;;22.45;;
37355;SDS011;48747;50.250;18.848;2024-02-16T08:30:47;36.30;;;22.50;;
37355;SDS011;48747;50.250;18.848;2024-02-16T08:32:50;38.13;;;20.40;;
37355;SDS011;48747;50.250;18.848;2024-02-16T08:34:53;35.00;;;20.20;;
37355;SDS011;48747;50.250;18.848;2024-02-16T08:36:57;36.75;;;20.25;;
37355;SDS011;48747;50.250;18.848;2024-02-16T08:39:01;35.03;;;19.77;;
37355;SDS011;48747;50.250;18.848;2024-02-16T08:41:04;39.40;;;20.30;;
37355;SDS011;48747;50.250;18.848;2024-02-16T08:43:07;35.90;;;19.10;;
37355;SDS011;48747;50.250;18.848;2024-02-16T08:45:10;31.33;;;17.77;;
37355;SDS011;48747;50.250;18.848;2024-02-16T08:47:13;30.12;;;18.95;;
37355;SDS011;48747;50.250;18.848;2024-02-16T08:49:17;30.45;;;18.27;;
37355;SDS011;48747;50.250;18.848;2024-02-16T08:51:20;29.75;;;17.73;;
37355;SDS011;48747;50.250;18.848;2024-02-16T08:53:23;31.57;;;17.02;;
37355;SDS011;48747;50.250;18.848;2024-02-16T08:55:26;28.15;;;16.25;;
37355;SDS011;48747;50.250;18.848;2024-02-16T08:57:31;30.48;;;16.00;;
37355;SDS011;48747;50.250;18.848;2024-02-16T08:59:35;27.70;;;16.32;;
37355;SDS011;48747;50.250;18.848;2024-02-16T09:01:38;30.25;;;16.23;;
37355;SDS011;48747;50.250;18.848;2024-02-16T09:03:41;29.50;;;16.93;;
37355;SDS011;48747;50.250;18.848;2024-02-16T09:05:44;29.52;;;16.55;;
37355;SDS011;48747;50.250;18.848;2024-02-16T09:07:47;30.15;;;16.42;;
37355;SDS011;48747;50.250;18.848;2024-02-16T09:09:50;30.20;;;16.23;;
37355;SDS011;48747;50.250;18.848;2024-02-16T09:11:54;25.95;;;15.48;;
37355;SDS011;48747;50.250;18.848;2024-02-16T09:13:57;34.55;;;19.07;;
37355;SDS011;48747;50.250;18.848;2024-02-16T09:16:01;24.67;;;13.15;;
37355;SDS011;48747;50.250;18.848;2024-02-16T09:18:10;29.05;;;14.45;;
37355;SDS011;48747;50.250;18.848;2024-02-16T09:20:10;24.90;;;13.22;;
37355;SDS011;48747;50.250;18.848;2024-02-16T09:22:13;22.77;;;12.82;;
37355;SDS011;48747;50.250;18.848;2024-02-16T09:24:17;28.23;;;12.80;;
37355;SDS011;48747;50.250;18.848;2024-02-16T09:26:20;21.33;;;12.47;;
37355;SDS011;48747;50.250;18.848;2024-02-16T09:28:25;23.57;;;12.73;;
37355;SDS011;48747;50.250;18.848;2024-02-16T09:30:28;21.17;;;12.28;;
37355;SDS011;48747;50.250;18.848;2024-02-16T09:32:31;20.85;;;10.55;;
37355;SDS011;48747;50.250;18.848;2024-02-16T09:34:34;16.57;;;9.28;;
37355;SDS011;48747;50.250;18.848;2024-02-16T09:36:37;15.78;;;9.48;;
37355;SDS011;48747;50.250;18.848;2024-02-16T09:38:40;22.02;;;9.78;;
37355;SDS011;48747;50.250;18.848;2024-02-16T09:40:43;12.23;;;7.20;;
37355;SDS011;48747;50.250;18.848;2024-02-16T09:42:49;14.15;;;7.17;;
37355;SDS011;48747;50.250;18.848;2024-02-16T09:44:53;11.03;;;5.78;;
37355;SDS011;48747;50.250;18.848;2024-02-16T09:46:57;12.20;;;6.45;;
37355;SDS011;48747;50.250;18.848;2024-02-16T09:49:02;9.73;;;5.12;;
37355;SDS011;48747;50.250;18.848;2024-02-16T09:51:06;18.40;;;7.12;;
37355;SDS011;48747;50.250;18.848;2024-02-16T09:53:10;11.68;;;6.03;;
37355;SDS011;48747;50.250;18.848;2024-02-16T09:55:16;13.05;;;6.92;;
37355;SDS011;48747;50.250;18.848;2024-02-16T09:57:19;15.35;;;6.08;;
37355;SDS011;48747;50.250;18.848;2024-02-16T09:59:22;10.82;;;6.33;;
37355;SDS011;48747;50.250;18.848;2024-02-16T10:01:25;10.63;;;6.50;;
37355;SDS011;48747;50.250;18.848;2024-02-16T10:03:30;10.65;;;6.03;;
37355;SDS011;48747;50.250;18.848;2024-02-16T10:05:34;10.95;;;6.45;;
37355;SDS011;48747;50.250;18.848;2024-02-16T10:07:37;12.18;;;7.17;;
37355;SDS011;48747;50.250;18.848;2024-02-16T10:09:41;18.15;;;7.15;;
37355;SDS011;48747;50.250;18.848;2024-02-16T10:11:44;11.65;;;6.60;;
37355;SDS011;48747;50.250;18.848;2024-02-16T10:13:53;11.65;;;7.45;;
37355;SDS011;48747;50.250;18.848;2024-02-16T10:16:04;14.30;;;7.33;;
37355;SDS011;48747;50.250;18.848;2024-02-16T10:18:12;13.20;;;7.50;;
37355;SDS011;48747;50.250;18.848;2024-02-16T10:20:18;11.85;;;7.47;;
37355;SDS011;48747;50.250;18.848;2024-02-16T10:22:21;11.33;;;7.22;;
37355;SDS011;48747;50.250;18.848;2024-02-16T10:24:24;14.95;;;7.97;;
37355;SDS011;48747;50.250;18.848;2024-02-16T10:26:28;12.55;;;7.20;;
37355;SDS011;48747;50.250;18.848;2024-02-16T10:28:31;12.93;;;7.22;;
37355;SDS011;48747;50.250;18.848;2024-02-16T10:30:35;10.85;;;6.42;;
37355;SDS011;48747;50.250;18.848;2024-02-16T10:32:39;12.33;;;6.80;;
37355;SDS011;48747;50.250;18.848;2024-02-16T10:34:43;12.60;;;6.95;;
37355;SDS011;48747;50.250;18.848;2024-02-16T10:36:48;13.25;;;7.45;;
37355;SDS011;48747;50.250;18.848;2024-02-16T10:38:51;14.13;;;7.72;;
37355;SDS011;48747;50.250;18.848;2024-02-16T10:40:56;12.75;;;7.12;;
37355;SDS011;48747;50.250;18.848;2024-02-16T10:43:06;15.72;;;7.55;;
37355;SDS011;48747;50.250;18.848;2024-02-16T10:45:13;14.00;;;6.90;;
37355;SDS011;48747;50.250;18.848;2024-02-16T10:47:14;11.33;;;7.35;;
37355;SDS011;48747;50.250;18.848;2024-02-16T10:49:17;11.15;;;6.90;;
37355;SDS011;48747;50.250;18.848;2024-02-16T10:51:21;14.53;;;7.30;;
37355;SDS011;48747;50.250;18.848;2024-02-16T10:53:27;13.62;;;6.55;;
37355;SDS011;48747;50.250;18.848;2024-02-16T10:55:33;10.60;;;5.22;;
37355;SDS011;48747;50.250;18.848;2024-02-16T10:57:36;7.95;;;4.75;;
37355;SDS011;48747;50.250;18.848;2024-02-16T10:59:42;9.05;;;4.90;;
37355;SDS011;48747;50.250;18.848;2024-02-16T11:01:46;10.95;;;4.62;;
37355;SDS011;48747;50.250;18.848;2024-02-16T11:03:49;9.25;;;4.62;;
37355;SDS011;48747;50.250;18.848;2024-02-16T11:05:55;7.53;;;4.97;;
37355;SDS011;48747;50.250;18.848;2024-02-16T11:08:00;9.55;;;5.33;;
37355;SDS011;48747;50.250;18.848;2024-02-16T11:10:04;7.67;;;4.80;;
37355;SDS011;48747;50.250;18.848;2024-02-16T11:12:08;10.25;;;5.15;;
37355;SDS011;48747;50.250;18.848;2024-02-16T11:14:17;7.58;;;4.80;;
37355;SDS011;48747;50.250;18.848;2024-02-16T11:16:20;8.08;;;4.55;;
37355;SDS011;48747;50.250;18.848;2024-02-16T11:18:23;11.22;;;5.70;;
37355;SDS011;48747;50.250;18.848;2024-02-16T11:20:27;7.75;;;5.12;;
37355;SDS011;48747;50.250;18.848;2024-02-16T11:22:30;7.72;;;4.45;;
37355;SDS011;48747;50.250;18.848;2024-02-16T11:24:33;14.55;;;5.12;;
37355;SDS011;48747;50.250;18.848;2024-02-16T11:26:44;9.00;;;5.00;;
37355;SDS011;48747;50.250;18.848;2024-02-16T11:28:47;10.78;;;5.12;;
37355;SDS011;48747;50.250;18.848;2024-02-16T11:30:51;9.30;;;5.33;;
37355;SDS011;48747;50.250;18.848;2024-02-16T11:32:54;7.90;;;5.10;;
37355;SDS011;48747;50.250;18.848;2024-02-16T11:35:04;10.80;;;5.12;;
37355;SDS011;48747;50.250;18.848;2024-02-16T11:37:04;8.45;;;5.15;;
37355;SDS011;48747;50.250;18.848;2024-02-16T11:39:12;10.50;;;5.10;;
37355;SDS011;48747;50.250;18.848;2024-02-16T11:41:17;12.85;;;5.60;;
37355;SDS011;48747;50.250;18.848;2024-02-16T11:43:21;10.15;;;5.47;;
37355;SDS011;48747;50.250;18.848;2024-02-16T11:45:25;9.80;;;5.70;;
37355;SDS011;48747;50.250;18.848;2024-02-16T11:47:28;12.93;;;5.95;;
37355;SDS011;48747;50.250;18.848;2024-02-16T11:49:31;17.65;;;6.67;;
37355;SDS011;48747;50.250;18.848;2024-02-16T11:51:34;10.40;;;5.97;;
37355;SDS011;48747;50.250;18.848;2024-02-16T11:53:37;14.23;;;6.42;;
37355;SDS011;48747;50.250;18.848;2024-02-16T11:55:45;10.13;;;6.05;;